createdAt,value
2022-08-28T08:58:07.201Z,97585.84
2022-08-28T09:01:17.938Z,97609.34
2022-08-28T09:04:34.336Z,97593.56
2022-08-28T09:07:42.690Z,97561.28
2022-08-28T09:10:52.942Z,97554.25
2022-08-28T09:14:08.356Z,97538.69
2022-08-28T09:17:14.187Z,97535.06
2022-08-28T09:20:20.362Z,97520.28
2022-08-28T09:23:33.088Z,97510.31
2022-08-28T09:26:37.358Z,97498.19
2022-08-28T09:29:43.626Z,97501.50
2022-08-28T09:33:00.844Z,97495.56
2022-08-28T09:36:35.239Z,97498.63
2022-08-28T09:39:38.230Z,97472.09
2022-08-28T09:42:58.411Z,97481.94
2022-08-28T09:46:05.032Z,97489.88
2022-08-28T09:49:13.460Z,97493.13
2022-08-28T09:52:25.121Z,97502.72
2022-08-28T09:55:47.475Z,97510.81
2022-08-28T09:58:54.588Z,97497.19
2022-08-28T10:02:24.313Z,97486.28
2022-08-28T10:05:39.168Z,97491.28
2022-08-28T10:09:03.169Z,97475.13
2022-08-28T10:12:17.075Z,97469.25
2022-08-28T10:15:27.198Z,97467.41
2022-08-28T10:18:39.211Z,97465.34
2022-08-28T10:21:50.684Z,97477.13
2022-08-28T10:25:04.985Z,97479.59
2022-08-28T10:28:29.107Z,97476.91
2022-08-28T10:31:44.265Z,97476.88
2022-08-28T10:35:02.007Z,97481.47
2022-08-28T10:38:11.613Z,97470.28
2022-08-28T10:41:21.771Z,97464.28
2022-08-28T10:44:29.339Z,97465.44
2022-08-28T10:47:35.412Z,97461.94
2022-08-28T10:50:45.167Z,97447.78
2022-08-28T10:53:55.292Z,97452.72
2022-08-28T10:57:06.917Z,97462.50
2022-08-28T11:00:13.661Z,97459.78
2022-08-28T11:03:34.021Z,97459.78
2022-08-28T11:06:44.598Z,97466.88
2022-08-28T11:09:51.859Z,97475.50
2022-08-28T11:12:55.243Z,97469.00
2022-08-28T11:15:58.325Z,97477.31
2022-08-28T11:19:44.554Z,97478.84
2022-08-28T11:22:54.004Z,97479.75
2022-08-28T11:26:01.989Z,97465.47
2022-08-28T11:29:04.980Z,97470.19
2022-08-28T11:32:36.449Z,97468.00
2022-08-28T11:35:50.916Z,97480.44
2022-08-28T11:39:21.410Z,97483.47
2022-08-28T11:42:39.071Z,97487.13
2022-08-28T11:46:12.143Z,97483.19
2022-08-28T11:49:41.820Z,97484.03
2022-08-28T11:53:09.162Z,97480.53
2022-08-28T11:56:49.659Z,97477.28
2022-08-28T12:00:04.915Z,97481.38
2022-08-28T12:03:13.602Z,97473.06
2022-08-28T12:06:16.618Z,97472.78
2022-08-28T12:09:40.130Z,97468.56
2022-08-28T12:12:55.920Z,97464.09
2022-08-28T12:16:06.860Z,97462.19
2022-08-28T12:19:11.300Z,97465.03
2022-08-28T12:22:17.257Z,97458.06
2022-08-28T12:25:29.187Z,97460.41
2022-08-28T12:28:40.363Z,97456.84
2022-08-28T12:32:15.159Z,97460.34
2022-08-28T12:35:21.229Z,97461.28
2022-08-28T12:38:24.460Z,97457.56
2022-08-28T12:41:28.143Z,97456.75
2022-08-28T12:44:34.425Z,97462.63
2022-08-28T12:47:39.177Z,97445.63
2022-08-28T12:50:42.833Z,97444.06
2022-08-28T12:53:47.778Z,97445.56
2022-08-28T12:56:51.248Z,97448.34
2022-08-28T12:59:56.834Z,97437.97
2022-08-28T13:03:01.379Z,97431.38
2022-08-28T13:06:09.343Z,97432.28
2022-08-28T13:09:16.826Z,97429.88
2022-08-28T13:12:23.328Z,97441.00
2022-08-28T13:15:48.523Z,97435.09
2022-08-28T13:18:59.192Z,97442.16
2022-08-28T13:22:04.037Z,97443.00
2022-08-28T13:25:08.501Z,97433.13
2022-08-28T13:28:17.708Z,97431.63
2022-08-28T13:31:29.823Z,97432.41
2022-08-28T13:34:35.068Z,97434.03
2022-08-28T13:37:49.062Z,97423.72
2022-08-28T13:40:58.428Z,97425.34
2022-08-28T13:44:01.739Z,97417.94
2022-08-28T13:47:07.693Z,97416.97
2022-08-28T13:50:10.850Z,97431.84
2022-08-28T13:53:13.959Z,97439.66
2022-08-28T13:56:16.918Z,97440.19
2022-08-28T13:59:19.929Z,97441.44
2022-08-28T14:02:41.605Z,97442.84
2022-08-28T14:05:44.677Z,97436.13
2022-08-28T14:08:47.788Z,97440.19
2022-08-28T14:11:51.309Z,97439.03
2022-08-28T14:14:54.126Z,97437.66
2022-08-28T14:17:58.310Z,97436.25
2022-08-28T14:21:01.400Z,97433.47
2022-08-28T14:24:05.644Z,97446.56
2022-08-28T14:27:08.784Z,97446.00
2022-08-28T14:30:12.284Z,97447.06
2022-08-28T14:33:20.678Z,97448.44
2022-08-28T14:36:26.202Z,97452.25
2022-08-28T14:39:29.077Z,97445.44
2022-08-28T14:42:31.908Z,97443.44
2022-08-28T14:45:34.962Z,97438.69
2022-08-28T14:48:39.392Z,97431.72
2022-08-28T14:51:44.199Z,97438.41
2022-08-28T14:54:46.999Z,97433.06
2022-08-28T14:57:51.171Z,97425.66
2022-08-28T15:00:54.238Z,97420.44
2022-08-28T15:03:59.366Z,97432.06
2022-08-28T15:07:06.417Z,97442.28
2022-08-28T15:10:11.613Z,97437.75
2022-08-28T15:13:15.300Z,97438.22
2022-08-28T15:16:20.213Z,97435.78
2022-08-28T15:19:31.026Z,97436.84
2022-08-28T15:22:33.840Z,97442.28
2022-08-28T15:25:36.771Z,97437.28
2022-08-28T15:28:39.633Z,97431.13
2022-08-28T15:31:45.511Z,97421.47
2022-08-28T15:34:50.024Z,97430.88
2022-08-28T15:37:53.577Z,97431.44
2022-08-28T15:41:13.919Z,97435.75
2022-08-28T15:44:17.103Z,97432.00
2022-08-28T15:47:19.902Z,97424.91
2022-08-28T15:50:24.194Z,97420.28
2022-08-28T15:53:28.787Z,97418.66
2022-08-28T15:56:31.679Z,97417.94
2022-08-28T15:59:44.104Z,97412.25
2022-08-28T16:02:52.281Z,97408.66
2022-08-28T16:05:57.542Z,97415.28
2022-08-28T16:09:00.392Z,97415.03
2022-08-28T16:12:03.368Z,97415.50
2022-08-28T16:15:07.119Z,97416.94
2022-08-28T16:18:10.005Z,97415.19
2022-08-28T16:21:14.541Z,97417.88
2022-08-28T16:24:17.459Z,97414.16
2022-08-28T16:27:20.628Z,97404.75
2022-08-28T16:30:24.605Z,97402.06
2022-08-28T16:33:28.052Z,97403.47
2022-08-28T16:36:34.675Z,97397.91
2022-08-28T16:39:37.601Z,97394.31
2022-08-28T16:42:41.424Z,97400.50
2022-08-28T16:45:46.632Z,97406.63
2022-08-28T16:48:50.399Z,97397.47
2022-08-28T16:51:54.535Z,97398.28
2022-08-28T16:54:57.310Z,97406.28
2022-08-28T16:58:00.173Z,97406.84
2022-08-28T17:01:03.695Z,97406.84
2022-08-28T17:04:08.824Z,97405.00
2022-08-28T17:07:13.224Z,97404.19
2022-08-28T17:10:23.046Z,97402.34
2022-08-28T17:13:28.013Z,97399.31
2022-08-28T17:16:32.237Z,97408.63
2022-08-28T17:19:35.064Z,97406.28
2022-08-28T17:22:41.415Z,97411.53
2022-08-28T17:25:58.420Z,97416.38
2022-08-28T17:29:02.566Z,97417.31
2022-08-28T17:32:08.334Z,97418.38
2022-08-28T17:35:15.278Z,97425.69
2022-08-28T17:38:19.459Z,97429.03
2022-08-28T17:41:22.264Z,97438.69
2022-08-28T17:44:28.084Z,97437.41
2022-08-28T17:47:31.835Z,97427.78
2022-08-28T17:50:37.463Z,97436.59
2022-08-28T17:53:49.457Z,97442.06
2022-08-28T17:56:53.417Z,97445.78
2022-08-28T17:59:56.239Z,97458.75
2022-08-28T18:02:59.246Z,97464.31
2022-08-28T18:06:05.459Z,97466.13
2022-08-28T18:09:14.957Z,97480.28
2022-08-28T18:12:17.874Z,97492.34
2022-08-28T18:15:20.886Z,97495.13
2022-08-28T18:18:32.319Z,97496.03
2022-08-28T18:21:41.081Z,97505.41
2022-08-28T18:24:45.222Z,97528.53
2022-08-28T18:27:48.003Z,97538.63
2022-08-28T18:30:52.895Z,97553.88
2022-08-28T18:33:55.879Z,97558.41
2022-08-28T18:36:58.818Z,97559.94
2022-08-28T18:40:03.139Z,97559.66
2022-08-28T18:43:08.323Z,97567.66
2022-08-28T18:46:13.834Z,97568.00
2022-08-28T18:49:19.234Z,97571.50
2022-08-28T18:52:22.006Z,97583.63
2022-08-28T18:55:33.801Z,97574.75
2022-08-28T18:58:39.011Z,97591.13
2022-08-28T19:01:45.630Z,97610.63
2022-08-28T19:04:54.021Z,97620.25
2022-08-28T19:07:56.920Z,97621.81
2022-08-28T19:11:07.659Z,97629.84
2022-08-28T19:14:13.319Z,97644.50
2022-08-28T19:17:20.932Z,97650.84
2022-08-28T19:20:26.533Z,97665.47
2022-08-28T19:23:29.416Z,97669.63
2022-08-28T19:26:34.250Z,97687.03
2022-08-28T19:29:37.640Z,97700.16
2022-08-28T19:32:49.777Z,97715.13
2022-08-28T19:36:02.840Z,97717.41
2022-08-28T19:39:06.219Z,97738.66
2022-08-28T19:42:14.626Z,97744.00
2022-08-28T19:45:25.763Z,97751.34
2022-08-28T19:48:51.534Z,97747.72
2022-08-28T19:52:03.139Z,97771.00
2022-08-28T19:55:09.321Z,97778.78
2022-08-28T19:58:13.692Z,97791.84
2022-08-28T20:01:16.633Z,97800.63
2022-08-28T20:04:23.545Z,97811.88
2022-08-28T20:07:28.873Z,97812.28
2022-08-28T20:10:35.894Z,97822.09
2022-08-28T20:13:41.675Z,97823.13
2022-08-28T20:16:48.405Z,97818.00
2022-08-28T20:19:59.701Z,97825.97
2022-08-28T20:23:08.612Z,97828.66
2022-08-28T20:26:15.590Z,97832.56
2022-08-28T20:29:20.442Z,97839.31
2022-08-28T20:32:23.261Z,97840.31
2022-08-28T20:35:27.564Z,97843.59
2022-08-28T20:38:31.783Z,97851.56
2022-08-28T20:41:35.489Z,97847.88
2022-08-28T20:44:39.590Z,97859.31
2022-08-28T20:47:42.427Z,97852.38
2022-08-28T20:50:47.673Z,97841.31
2022-08-28T20:53:53.715Z,97836.19
2022-08-28T20:56:58.282Z,97846.03
2022-08-28T21:00:05.666Z,97853.13
2022-08-28T21:03:12.249Z,97870.91
2022-08-28T21:06:15.000Z,97879.28
2022-08-28T21:09:18.596Z,97882.50
2022-08-28T21:12:21.459Z,97900.91
2022-08-28T21:15:28.195Z,97908.91
2022-08-28T21:18:30.938Z,97908.88
2022-08-28T21:21:35.127Z,97907.44
2022-08-28T21:24:37.920Z,97914.53
2022-08-28T21:27:40.719Z,97906.22
2022-08-28T21:30:44.895Z,97905.41
2022-08-28T21:33:48.136Z,97899.22
2022-08-28T21:36:51.887Z,97909.25
2022-08-28T21:39:56.362Z,97913.53
2022-08-28T21:42:59.714Z,97910.28
2022-08-28T21:46:05.319Z,97916.63
2022-08-28T21:49:08.071Z,97916.00
2022-08-28T21:52:10.818Z,97915.00
2022-08-28T21:55:15.973Z,97914.38
2022-08-28T21:58:19.113Z,97920.47
2022-08-28T22:01:25.919Z,97931.22
2022-08-28T22:04:28.822Z,97928.50
2022-08-28T22:07:31.764Z,97933.38
2022-08-28T22:10:38.630Z,97943.28
2022-08-28T22:13:43.464Z,97946.34
2022-08-28T22:16:47.866Z,97954.97
2022-08-28T22:19:51.236Z,97952.31
2022-08-28T22:23:11.282Z,97959.47
2022-08-28T22:26:16.212Z,97978.75
2022-08-28T22:29:18.917Z,97974.56
2022-08-28T22:32:25.582Z,97973.44
2022-08-28T22:35:28.950Z,97968.72
2022-08-28T22:38:31.926Z,97961.88
2022-08-28T22:41:37.478Z,97971.16
2022-08-28T22:44:40.283Z,97961.88
2022-08-28T22:47:44.476Z,97952.38
2022-08-28T22:50:48.405Z,97957.19
2022-08-28T22:53:52.748Z,97947.75
2022-08-28T22:56:55.468Z,97951.41
2022-08-28T23:00:01.422Z,97943.28
2022-08-28T23:03:05.871Z,97947.31
2022-08-28T23:06:09.148Z,97944.13
2022-08-28T23:09:12.022Z,97949.50
2022-08-28T23:12:14.784Z,97942.50
2022-08-28T23:15:20.570Z,97950.94
2022-08-28T23:18:24.743Z,97949.69
2022-08-28T23:21:28.433Z,97943.75
2022-08-28T23:24:31.476Z,97946.78
2022-08-28T23:27:36.712Z,97959.13
2022-08-28T23:30:41.325Z,97968.34
2022-08-28T23:33:52.617Z,97975.06
2022-08-28T23:36:55.443Z,97977.97
2022-08-28T23:40:01.458Z,97979.38
2022-08-28T23:43:04.847Z,97997.53
2022-08-28T23:46:07.615Z,98001.78
2022-08-28T23:49:12.880Z,98008.69
2022-08-28T23:52:15.723Z,98007.72
2022-08-28T23:55:20.938Z,97999.69
2022-08-28T23:58:23.739Z,97997.13
